PDT,Max TemperatureF,Mean TemperatureF,Min TemperatureF,Max Dew PointF,MeanDew PointF,Min DewpointF,Max Humidity, Mean Humidity, Min Humidity, Max Sea Level PressureIn, Mean Sea Level PressureIn, Min Sea Level PressureIn, Max VisibilityMiles, Mean VisibilityMiles, Min VisibilityMiles, Max Wind SpeedMPH, Mean Wind SpeedMPH, Max Gust SpeedMPH,PrecipitationIn, CloudCover, Events, WindDirDegrees
2013-8-1,75,63,50,55,52,49,89,69,49,30.03,29.98,29.93,10,10,10,20,10,24,0.00,0,,221
2013-8-2,76,61,45,54,52,43,93,70,46,29.99,29.92,29.86,10,10,10,22,9,25,0.00,2,,211
2013-8-3,72,62,51,55,53,49,93,73,53,29.98,29.93,29.88,10,10,9,17,10,21,0.00,4,,213
2013-8-4,71,63,54,54,52,50,93,73,53,30.01,29.96,29.92,10,10,10,18,11,23,0.00,5,,253
2013-8-5,73,63,53,54,51,49,93,73,53,30.02,29.97,29.90,10,10,10,18,10,30,0.00,4,,246
2013-8-6,75,64,53,55,52,48,93,70,46,30.04,29.99,29.95,10,10,10,22,13,26,0.00,5,,256
2013-8-7,72,65,57,57,54,52,86,72,57,30.09,30.04,30.01,10,10,7,22,12,26,0.00,6,,258
2013-8-8,76,65,54,55,53,51,93,71,49,30.02,29.96,29.91,10,10,10,20,10,,0.00,4,,250
2013-8-9,75,65,55,57,53,51,86,70,53,29.99,29.93,29.89,10,10,10,20,10,24,0.00,5,,257
2013-8-10,77,67,56,57,54,52,87,69,50,30.05,29.99,29.96,10,10,10,21,10,56,0.00,4,,261
2013-8-11,75,64,53,57,54,51,93,75,57,30.03,29.98,29.90,10,10,10,20,8,22,0.00,4,,239
2013-8-12,76,64,52,57,54,49,93,73,53,30.01,29.95,29.91,10,10,10,16,7,24,0.00,4,,239
2013-8-13,88,72,55,57,54,52,86,59,32,30.00,29.93,29.86,10,10,10,17,7,21,0.00,3,,215
2013-8-14,81,65,48,61,54,46,87,65,42,29.97,29.91,29.85,10,10,10,21,9,24,0.00,0,,211
2013-8-15,88,70,52,64,58,52,100,73,45,29.93,29.90,29.87,10,7,1,20,9,25,0.00,1,,229
2013-8-16,86,74,61,63,59,55,93,67,40,29.97,29.93,29.89,10,10,5,18,9,22,0.00,4,,228
2013-8-17,81,68,54,59,57,52,93,73,52,29.97,29.91,29.81,10,10,9,18,8,36,0.00,1,,214
2013-8-18,91,75,59,61,59,57,90,63,36,29.89,29.82,29.74,10,10,8,18,5,30,0.00,2,,213
2013-8-19,84,72,59,60,58,56,90,67,43,29.87,29.82,29.77,10,10,10,20,8,48,0.00,0,,206
2013-8-20,77,68,59,58,57,56,90,70,50,29.88,29.84,29.78,10,10,10,22,11,26,0.00,2,,243
2013-8-21,77,66,55,57,54,51,87,69,50,29.94,29.88,29.82,10,10,10,20,12,45,0.00,3,,255
2013-8-22,78,67,55,55,53,50,93,68,43,29.97,29.90,29.85,10,10,10,21,13,25,0.00,2,,265
2013-8-23,74,66,57,57,54,53,86,70,53,29.92,29.85,29.77,10,10,10,16,10,31,0.00,4,,236
2013-8-24,83,67,50,58,54,48,93,69,45,29.86,29.83,29.80,10,10,10,24,11,30,0.00,1,,246
2013-8-25,81,71,61,61,59,57,90,72,54,29.94,29.89,29.85,10,10,10,20,11,25,0.00,2,,237
2013-8-26,82,68,54,59,55,52,84,60,36,30.01,29.93,29.86,10,10,10,18,9,23,0.00,3,,240
2013-8-27,86,68,50,59,54,48,96,67,37,29.88,29.83,29.78,10,10,6,23,8,38,0.00,0,,242
2013-8-28,86,69,51,62,57,52,100,70,40,29.93,29.87,29.82,10,6,0,22,8,23,0.00,3,Fog,255
2013-8-29,87,74,60,62,60,58,93,68,43,30.04,29.97,29.92,10,10,10,26,11,31,0.00,3,,252
2013-8-30,92,73,53,62,57,53,100,65,29,30.03,29.98,29.87,10,6,0,16,7,20,0.00,0,Fog,206
2013-8-31,84,69,54,60,56,51,100,67,34,29.95,29.90,29.85,10,10,10,18,8,22,0.00,0,,233